createdAt,value
2024-01-15T00:00:09.973Z,2.03
2024-01-15T00:05:15.026Z,2.01
2024-01-15T00:10:15.854Z,2.01
2024-01-15T00:15:16.848Z,1.98
2024-01-15T00:20:18.941Z,1.90
2024-01-15T00:25:19.875Z,1.85
2024-01-15T00:30:20.654Z,1.86
2024-01-15T00:35:22.746Z,1.80
2024-01-15T00:40:23.472Z,1.78
2024-01-15T00:45:24.202Z,1.79
2024-01-15T00:50:26.225Z,1.63
2024-01-15T00:55:26.994Z,1.71
2024-01-15T01:00:28.017Z,1.70
2024-01-15T01:05:30.117Z,1.67
2024-01-15T01:10:31.416Z,1.74
2024-01-15T01:15:32.184Z,1.70
2024-01-15T01:20:34.335Z,1.62
2024-01-15T01:25:35.099Z,1.55
2024-01-15T01:30:35.807Z,1.57
2024-01-15T01:35:38.309Z,1.56
2024-01-15T01:40:38.999Z,1.47
2024-01-15T01:45:40.560Z,1.48
2024-01-15T01:50:42.774Z,1.45
2024-01-15T01:55:43.676Z,1.44
2024-01-15T02:00:45.358Z,1.50
2024-01-15T02:05:50.909Z,1.45
2024-01-15T02:10:51.688Z,1.54
2024-01-15T02:15:52.433Z,1.55
2024-01-15T02:20:54.432Z,1.47
2024-01-15T02:25:56.563Z,1.44
2024-01-15T02:30:57.581Z,1.42
2024-01-15T02:35:58.295Z,1.38
2024-01-15T02:41:00.845Z,1.35
2024-01-15T02:46:01.589Z,1.34
2024-01-15T02:51:02.327Z,1.33
2024-01-15T02:56:04.586Z,1.24
2024-01-15T03:01:05.842Z,1.25
2024-01-15T03:06:07.212Z,1.25
2024-01-15T03:11:09.329Z,1.24
2024-01-15T03:16:10.010Z,1.17
2024-01-15T03:21:10.720Z,1.21
2024-01-15T03:26:12.788Z,1.21
2024-01-15T03:31:13.741Z,1.16
2024-01-15T03:36:14.593Z,1.18
2024-01-15T03:41:16.670Z,1.10
2024-01-15T03:46:17.380Z,1.09
2024-01-15T03:51:19.626Z,1.00
2024-01-15T03:56:21.776Z,0.99
2024-01-15T04:01:22.489Z,0.85
2024-01-15T04:06:23.313Z,0.83
2024-01-15T04:11:25.638Z,0.75
2024-01-15T04:16:26.309Z,0.75
2024-01-15T04:21:27.100Z,0.75
2024-01-15T04:26:29.170Z,0.69
2024-01-15T04:31:30.053Z,0.64
2024-01-15T04:36:31.081Z,0.68
2024-01-15T04:41:33.129Z,0.70
2024-01-15T04:46:33.828Z,0.70
2024-01-15T04:51:34.534Z,0.62
2024-01-15T04:56:36.638Z,0.53
2024-01-15T05:01:37.632Z,0.46
2024-01-15T05:06:38.341Z,0.43
2024-01-15T05:11:40.346Z,0.36
2024-01-15T05:16:41.304Z,0.41
2024-01-15T05:21:42.059Z,0.35
2024-01-15T05:26:44.107Z,0.39
2024-01-15T05:31:45.035Z,0.42
2024-01-15T05:36:49.127Z,0.40
2024-01-15T05:41:51.272Z,0.28
2024-01-15T05:46:51.961Z,0.37
2024-01-15T05:51:52.804Z,0.44
2024-01-15T05:56:54.880Z,0.46
2024-01-15T06:01:55.625Z,0.41
2024-01-15T06:06:56.451Z,0.42
2024-01-15T06:11:58.611Z,0.44
2024-01-15T06:16:59.301Z,0.52
2024-01-15T06:22:00.147Z,0.50
2024-01-15T06:27:02.321Z,0.57
2024-01-15T06:32:03.062Z,0.58
2024-01-15T06:37:04.013Z,0.55
2024-01-15T06:42:06.730Z,0.59
2024-01-15T06:47:07.781Z,0.62
2024-01-15T06:52:08.629Z,0.63
2024-01-15T06:57:10.697Z,0.64
2024-01-15T07:02:11.780Z,0.64
2024-01-15T07:07:12.538Z,0.62
2024-01-15T07:12:14.602Z,0.60
2024-01-15T07:17:15.313Z,0.63
2024-01-15T07:22:18.261Z,0.62
2024-01-15T07:27:22.426Z,0.65
2024-01-15T07:32:23.156Z,0.60
2024-01-15T07:37:24.459Z,0.62
2024-01-15T07:42:26.749Z,0.53
2024-01-15T07:47:27.951Z,0.55
2024-01-15T07:52:28.664Z,0.51
2024-01-15T07:57:30.856Z,0.45
2024-01-15T08:02:35.555Z,0.51
2024-01-15T08:07:38.309Z,0.61
2024-01-15T08:12:40.363Z,0.61
2024-01-15T08:17:41.143Z,0.67
2024-01-15T08:22:41.928Z,0.68
2024-01-15T08:27:44.029Z,0.53
2024-01-15T08:32:44.850Z,0.69
2024-01-15T08:37:45.638Z,0.80
2024-01-15T08:42:47.747Z,0.78
2024-01-15T08:47:48.603Z,0.70
2024-01-15T08:52:49.329Z,0.84
2024-01-15T08:57:51.673Z,0.79
2024-01-15T09:02:52.544Z,0.84
2024-01-15T09:07:53.986Z,0.93
2024-01-15T09:12:56.214Z,0.98
2024-01-15T09:17:58.535Z,1.06
2024-01-15T09:22:59.290Z,1.30
2024-01-15T09:28:01.387Z,1.33
2024-01-15T09:33:02.226Z,1.35
2024-01-15T09:38:03.079Z,1.38
2024-01-15T09:43:06.293Z,1.60
2024-01-15T09:48:08.146Z,1.66
2024-01-15T09:53:08.941Z,1.72
2024-01-15T09:58:12.101Z,1.57
2024-01-15T10:03:13.251Z,1.72
2024-01-15T10:08:14.136Z,1.77
2024-01-15T10:13:17.321Z,1.58
2024-01-15T10:18:18.234Z,1.67
2024-01-15T10:23:19.146Z,1.69
2024-01-15T10:28:21.860Z,1.78
2024-01-15T10:33:26.748Z,1.82
2024-01-15T10:38:28.173Z,1.90
2024-01-15T10:43:30.259Z,1.94
2024-01-15T10:48:32.282Z,2.01
2024-01-15T10:53:34.496Z,1.89
2024-01-15T10:58:37.133Z,1.96
2024-01-15T11:03:38.308Z,1.88
2024-01-15T11:08:39.268Z,1.87
2024-01-15T11:13:44.935Z,1.83
2024-01-15T11:19:07.273Z,1.85
2024-01-15T11:24:12.293Z,1.82
2024-01-15T11:29:32.851Z,1.79
2024-01-15T11:34:54.016Z,1.74
2024-01-15T11:39:56.159Z,1.77
2024-01-15T11:44:58.409Z,1.98
2024-01-15T11:50:03.671Z,2.21
2024-01-15T11:55:15.072Z,2.15
2024-01-15T12:00:17.761Z,2.25
2024-01-15T12:05:19.667Z,2.32
2024-01-15T12:10:22.680Z,2.33
2024-01-15T12:15:25.770Z,2.20
2024-01-15T12:20:27.014Z,2.14
2024-01-15T12:25:28.666Z,2.13
2024-01-15T12:30:33.003Z,2.09
2024-01-15T12:35:35.464Z,2.09
2024-01-15T12:40:37.502Z,1.97
2024-01-15T12:45:40.552Z,1.99
2024-01-15T12:50:41.952Z,1.86
2024-01-15T12:55:42.664Z,1.77
2024-01-15T13:00:44.807Z,1.59
2024-01-15T13:05:46.433Z,1.62
2024-01-15T13:10:47.302Z,1.49
2024-01-15T13:15:49.425Z,1.53
2024-01-15T13:20:50.963Z,1.48
2024-01-15T13:25:51.828Z,1.46
2024-01-15T13:30:54.011Z,1.63
2024-01-15T13:35:54.758Z,1.58
2024-01-15T13:40:56.583Z,1.47
2024-01-15T13:45:58.645Z,1.39
2024-01-15T13:51:00.259Z,1.40
2024-01-15T13:56:01.098Z,1.19
2024-01-15T14:01:04.646Z,0.97
2024-01-15T14:06:09.761Z,0.84
2024-01-15T14:11:11.349Z,0.61
2024-01-15T14:16:13.425Z,0.65
2024-01-15T14:21:14.241Z,0.66
2024-01-15T14:26:15.462Z,0.73
2024-01-15T14:31:18.760Z,0.57
2024-01-15T14:36:19.540Z,0.56
2024-01-15T14:41:20.280Z,0.59
2024-01-15T14:46:22.343Z,0.50
2024-01-15T14:51:23.196Z,0.44
2024-01-15T14:56:23.930Z,0.27
2024-01-15T15:01:26.197Z,0.18
2024-01-15T15:06:29.060Z,0.14
2024-01-15T15:11:30.485Z,0.04
2024-01-15T15:16:32.829Z,0.04
2024-01-15T15:21:33.684Z,0.08
2024-01-15T15:26:34.442Z,0.07
2024-01-15T15:31:36.566Z,0.22
2024-01-15T15:36:37.432Z,0.24
2024-01-15T15:41:39.082Z,0.34
2024-01-15T15:46:41.258Z,0.35
2024-01-15T15:51:42.789Z,0.32
2024-01-15T15:56:48.750Z,0.36
2024-01-15T16:01:51.408Z,0.42
2024-01-15T16:06:52.326Z,0.45
2024-01-15T16:11:53.161Z,0.57
2024-01-15T16:23:13.370Z,0.61
2024-01-15T16:23:41.138Z,0.69
2024-01-15T16:27:41.386Z,0.62
2024-01-15T16:32:43.564Z,0.62
2024-01-15T16:37:44.298Z,0.61
2024-01-15T16:42:46.285Z,0.62
2024-01-15T16:47:48.685Z,0.57
2024-01-15T16:52:49.488Z,0.60
2024-01-15T16:57:50.385Z,0.58
2024-01-15T17:02:52.651Z,0.50
2024-01-15T17:07:53.443Z,0.22
2024-01-15T17:12:54.199Z,0.25
2024-01-15T17:17:56.437Z,0.34
2024-01-15T17:22:57.843Z,0.39
2024-01-15T17:27:58.625Z,0.44
2024-01-15T17:33:00.790Z,0.63
2024-01-15T17:38:01.768Z,0.72
2024-01-15T17:43:02.509Z,0.80
2024-01-15T17:48:05.003Z,0.79
2024-01-15T17:53:06.233Z,0.85
2024-01-15T17:58:07.874Z,0.88
2024-01-15T18:03:09.933Z,0.74
2024-01-15T18:08:10.659Z,0.56
2024-01-15T18:13:11.593Z,0.53
2024-01-15T18:18:13.918Z,0.50
2024-01-15T18:23:15.492Z,0.51
2024-01-15T18:28:16.213Z,0.50
2024-01-15T18:33:18.286Z,0.48
2024-01-15T18:38:19.050Z,0.50
2024-01-15T18:43:19.975Z,0.63
2024-01-15T18:48:22.102Z,0.66
2024-01-15T18:53:22.944Z,0.53
2024-01-15T18:58:24.708Z,0.42
2024-01-15T19:03:26.841Z,0.24
2024-01-15T19:08:27.764Z,0.28
2024-01-15T19:13:28.559Z,0.15
2024-01-15T19:18:31.445Z,0.25
2024-01-15T19:23:32.325Z,0.26
2024-01-15T19:28:33.152Z,0.23
2024-01-15T19:33:38.195Z,0.27
2024-01-15T19:38:42.428Z,0.18
2024-01-15T19:43:43.249Z,0.16
2024-01-15T19:48:46.604Z,0.14
2024-01-15T19:53:48.055Z,0.20
2024-01-15T19:58:48.782Z,0.24
2024-01-15T20:03:50.837Z,0.17
2024-01-15T20:08:53.357Z,0.37
2024-01-15T20:13:54.154Z,0.44
2024-01-15T20:18:56.343Z,0.54
2024-01-15T20:24:01.470Z,0.63
2024-01-15T20:29:05.779Z,0.59
2024-01-15T20:34:08.240Z,0.65
2024-01-15T20:39:10.346Z,0.61
2024-01-15T20:44:11.262Z,0.53
2024-01-15T20:49:13.483Z,0.45
2024-01-15T20:54:14.283Z,0.48
2024-01-15T20:59:15.051Z,0.52
2024-01-15T21:04:18.082Z,0.52
2024-01-15T21:09:19.621Z,0.41
2024-01-15T21:14:20.483Z,0.18
2024-01-15T21:19:22.687Z,0.08
2024-01-15T21:24:28.580Z,0.14
2024-01-15T21:29:29.628Z,0.37
2024-01-15T21:34:32.300Z,0.52
2024-01-15T21:39:33.759Z,0.63
2024-01-15T21:44:35.301Z,0.73
2024-01-15T21:49:37.330Z,0.85
2024-01-15T21:54:38.001Z,0.87
2024-01-15T21:59:38.794Z,0.78
2024-01-15T22:04:40.852Z,0.76
2024-01-15T22:09:41.635Z,0.74
2024-01-15T22:14:42.448Z,0.76
2024-01-15T22:19:44.574Z,0.79
2024-01-15T22:24:45.390Z,0.70
2024-01-15T22:29:48.315Z,0.46
2024-01-15T22:34:50.605Z,0.16
2024-01-15T22:39:51.371Z,-0.14
2024-01-15T22:44:53.601Z,-0.23
2024-01-15T22:49:55.770Z,-0.18
2024-01-15T22:54:56.671Z,-0.14
2024-01-15T22:59:57.369Z,-0.04
2024-01-15T23:04:59.465Z,-0.01
2024-01-15T23:10:00.215Z,0.01
2024-01-15T23:15:00.986Z,0.06
2024-01-15T23:20:05.356Z,0.13
2024-01-15T23:25:07.189Z,0.24
2024-01-15T23:30:10.391Z,0.32
2024-01-15T23:35:12.489Z,0.39
2024-01-15T23:40:14.181Z,0.51
2024-01-15T23:45:14.921Z,0.51
2024-01-15T23:50:17.067Z,0.57
2024-01-15T23:55:17.955Z,0.55
